^^
Meteo Knjazevac Station Historical Data
Daily Summary for May 26, 2022 Units:  English    Metric   Both
Daily Weekly Monthly Yearly Custom
  High: Low: Average:
Temperature: 82.8 °F 58.2 °F 70.8 °F
Dew Point: 66.2 °F 53.7 °F 59.7 °F
Humidity: 88% 51% 69%
Wind Speed: 10mph 0mph 4.4mph
Wind Gust: 20mph - -
Wind- - WSW
Pressure: 30.22 in 30.06 in -
Precipitation: 0.00 in    
Historical Graphs
 
 
Tabular Data for May 26, 2022
Time Temperature Dew Point Pressure Wind Wind Speed Wind Gust Humidity Rainfall Rate (Hourly) solar Conditions
00:00 61 °F 54.4 °F 30.07 in West 1 mph 4 mph 79% 0.00 in 0 W/m2
00:10 60.6 °F 54.4 °F 30.06 in WNW 1 mph 4 mph 80% 0.00 in 0 W/m2
00:20 60.4 °F 54.2 °F 30.07 in WSW 2 mph 5 mph 80% 0.00 in 0 W/m2
00:30 60.3 °F 54.1 °F 30.07 in WNW 2 mph 4 mph 80% 0.00 in 0 W/m2
00:40 60.3 °F 54.4 °F 30.08 in West 3 mph 6 mph 81% 0.00 in 0 W/m2
00:50 60.1 °F 54.2 °F 30.08 in West 1 mph 5 mph 81% 0.00 in 0 W/m2
01:00 59.7 °F 53.9 °F 30.08 in WNW 2 mph 5 mph 81% 0.00 in 0 W/m2
01:10 59.7 °F 53.9 °F 30.08 in WNW 2 mph 4 mph 81% 0.00 in 0 W/m2
01:20 59.7 °F 53.9 °F 30.08 in West 2 mph 4 mph 81% 0.00 in 0 W/m2
01:30 60.1 °F 54.2 °F 30.08 in North 1 mph 4 mph 81% 0.00 in 0 W/m2
01:40 60.3 °F 54.4 °F 30.08 in Calm   3 mph 81% 0.00 in 0 W/m2
01:50 60.4 °F 54.6 °F 30.08 in North 1 mph 5 mph 81% 0.00 in 0 W/m2
02:00 60.8 °F 54.9 °F 30.09 in NE 2 mph 4 mph 81% 0.00 in 0 W/m2
02:10 60.8 °F 54.6 °F 30.09 in North 1 mph 3 mph 80% 0.00 in 0 W/m2
02:20 60.4 °F 54.6 °F 30.09 in North 1 mph 4 mph 81% 0.00 in 0 W/m2
02:30 60.1 °F 54.9 °F 30.08 in Calm   5 mph 83% 0.00 in 0 W/m2
02:40 60.3 °F 55.1 °F 30.09 in NNW 1 mph 3 mph 83% 0.00 in 0 W/m2
02:50 60.3 °F 55.1 °F 30.09 in North 3 mph 4 mph 83% 0.00 in 0 W/m2
03:00 60.8 °F 55 °F 30.10 in NNE 5 mph 6 mph 81% 0.00 in 0 W/m2
03:10 61 °F 55.1 °F 30.11 in NW 3 mph 5 mph 81% 0.00 in 0 W/m2
03:20 60.8 °F 54.9 °F 30.12 in NE 1 mph 7 mph 81% 0.00 in 0 W/m2
03:30 60.8 °F 54.9 °F 30.12 in NNE 6 mph 8 mph 81% 0.00 in 0 W/m2
03:40 60.8 °F 54.6 °F 30.12 in NE 3 mph 6 mph 80% 0.00 in 0 W/m2
03:50 60.8 °F 54.9 °F 30.12 in NE 1 mph 5 mph 81% 0.00 in 0 W/m2
04:00 60.4 °F 54.5 °F 30.12 in North 2 mph 3 mph 81% 0.00 in 0 W/m2
04:10 60.1 °F 54.3 °F 30.13 in North 1 mph 3 mph 81% 0.00 in 0 W/m2
04:20 60.1 °F 54.2 °F 30.12 in Calm     81% 0.00 in 0 W/m2
04:30 59.7 °F 54.5 °F 30.13 in NW 1 mph 2 mph 83% 0.00 in 0 W/m2
04:40 59.5 °F 54.4 °F 30.13 in NNW 1 mph 3 mph 83% 0.00 in 0 W/m2
04:50 59.2 °F 54.3 °F 30.13 in WSW 2 mph 3 mph 84% 0.00 in 0 W/m2
05:00 58.6 °F 53.8 °F 30.13 in West 1 mph 3 mph 84% 0.00 in 2 W/m2
05:10 58.3 °F 53.8 °F 30.13 in Calm   2 mph 85% 0.00 in 5 W/m2
05:20 58.2 °F 53.7 °F 30.13 in Calm   2 mph 85% 0.00 in 10 W/m2
05:30 58.3 °F 54.1 °F 30.13 in Calm   2 mph 86% 0.00 in 10 W/m2
05:40 58.5 °F 54.6 °F 30.13 in NNW 2 mph 3 mph 87% 0.01 in 20 W/m2
05:50 58.5 °F 54.3 °F 30.14 in WNW 1 mph 4 mph 86% 0.00 in 29 W/m2
06:00 58.5 °F 54.6 °F 30.14 in NW 3 mph 5 mph 87% 0.00 in 35 W/m2
06:10 58.7 °F 55.1 °F 30.14 in North 2 mph 3 mph 88% 0.00 in 49 W/m2
06:30 59.4 °F 55.2 °F 30.15 in Calm   4 mph 86% 0.00 in 86 W/m2
06:40 59.5 °F 55.3 °F 30.15 in Calm   2 mph 86% 0.00 in 101 W/m2
06:50 59.9 °F 55.7 °F 30.15 in WNW 1 mph 2 mph 86% 0.00 in 100 W/m2
07:00 60.3 °F 56.1 °F 30.16 in Calm   2 mph 86% 0.00 in 201 W/m2
07:10 60.9 °F 56.3 °F 30.16 in Calm   2 mph 85% 0.00 in 230 W/m2
07:20 61.7 °F 56.8 °F 30.17 in WNW 1 mph 2 mph 84% 0.00 in 237 W/m2
07:30 62.5 °F 56.6 °F 30.17 in Calm   3 mph 81% 0.00 in 279 W/m2
07:40 63.6 °F 57.6 °F 30.17 in Calm   1 mph 81% 0.00 in 251 W/m2
07:50 64.8 °F 58.2 °F 30.18 in WNW 1 mph 3 mph 79% 0.00 in 369 W/m2
08:00 66.3 °F 59.9 °F 30.18 in WSW 6 mph 11 mph 80% 0.00 in 382 W/m2
08:10 68.1 °F 61.3 °F 30.18 in WSW 9 mph 14 mph 79% 0.00 in 446 W/m2
08:20 69.4 °F 61.9 °F 30.18 in WSW 7 mph 14 mph 77% 0.00 in 433 W/m2
08:30 70.5 °F 62.2 °F 30.19 in WSW 6 mph 14 mph 75% 0.00 in 416 W/m2
08:40 71.1 °F 62.4 °F 30.19 in West 8 mph 14 mph 74% 0.00 in 508 W/m2
08:50 72 °F 62.8 °F 30.19 in West 9 mph 14 mph 73% 0.00 in 554 W/m2
09:00 72.5 °F 63 °F 30.19 in West 8 mph 16 mph 72% 0.00 in 598 W/m2
09:10 73.3 °F 62.9 °F 30.19 in West 7 mph 15 mph 70% 0.00 in 672 W/m2
09:20 73.8 °F 63 °F 30.19 in WNW 7 mph 15 mph 69% 0.00 in 671 W/m2
09:30 74.5 °F 63.2 °F 30.19 in West 8 mph 14 mph 68% 0.00 in 713 W/m2
09:40 75.4 °F 63.7 °F 30.19 in WNW 6 mph 12 mph 67% 0.00 in 742 W/m2
09:50 75.9 °F 64.2 °F 30.19 in West 6 mph 13 mph 67% 0.00 in 787 W/m2
10:00 76.8 °F 63.7 °F 30.19 in WNW 6 mph 14 mph 64% 0.00 in 808 W/m2
10:10 77.5 °F 63.9 °F 30.19 in WNW 9 mph 16 mph 63% 0.00 in 823 W/m2
10:20 76.8 °F 63.3 °F 30.20 in West 8 mph 16 mph 63% 0.00 in 496 W/m2
10:30 76.5 °F 63.4 °F 30.20 in West 10 mph 15 mph 64% 0.01 in 808 W/m2
10:40 77 °F 63.9 °F 30.19 in West 10 mph 16 mph 64% 0.00 in 262 W/m2
10:50 77.5 °F 64.4 °F 30.19 in West 8 mph 16 mph 64% 0.00 in 430 W/m2
11:00 78.3 °F 65.1 °F 30.19 in West 8 mph 14 mph 64% 0.00 in 462 W/m2
11:10 78.8 °F 65.1 °F 30.19 in West 9 mph 14 mph 63% 0.00 in 362 W/m2
11:20 79.5 °F 65.8 °F 30.20 in West 6 mph 16 mph 63% 0.00 in 814 W/m2
11:30 79.9 °F 66.2 °F 30.20 in West 10 mph 17 mph 63% 0.00 in 903 W/m2
11:40 79.9 °F 65.7 °F 30.20 in West 9 mph 16 mph 62% 0.00 in 886 W/m2
11:50 79.5 °F 65.4 °F 30.20 in West 10 mph 15 mph 62% 0.00 in 923 W/m2
12:00 79.2 °F 65.5 °F 30.20 in West 9 mph 16 mph 63% 0.00 in 932 W/m2
12:10 79.5 °F 65.8 °F 30.21 in West 9 mph 20 mph 63% 0.00 in 941 W/m2
12:20 79.3 °F 65.6 °F 30.20 in WNW 7 mph 18 mph 63% 0.00 in 908 W/m2
12:30 79.7 °F 65.5 °F 30.20 in WNW 8 mph 15 mph 62% 0.00 in 586 W/m2
12:40 80.4 °F 65.3 °F 30.21 in WNW 9 mph 14 mph 60% 0.00 in 664 W/m2
12:50 80.2 °F 65.1 °F 30.20 in West 9 mph 13 mph 60% 0.00 in 802 W/m2
13:00 80.8 °F 65.6 °F 30.20 in NW 6 mph 14 mph 60% 0.00 in 700 W/m2
13:10 81.1 °F 65.5 °F 30.20 in WNW 6 mph 13 mph 59% 0.00 in 775 W/m2
13:20 81.4 °F 65.7 °F 30.20 in West 7 mph 12 mph 59% 0.00 in 934 W/m2
13:30 81.9 °F 65.6 °F 30.20 in West 8 mph 14 mph 58% 0.00 in 911 W/m2
13:40 81.7 °F 65.5 °F 30.19 in West 10 mph 16 mph 58% 0.00 in 909 W/m2
13:50 81.7 °F 65.5 °F 30.19 in West 8 mph 15 mph 58% 0.00 in 896 W/m2
14:00 81.9 °F 65.6 °F 30.19 in WSW 7 mph 14 mph 58% 0.00 in 885 W/m2
14:10 81.7 °F 65.5 °F 30.19 in WSW 9 mph 16 mph 58% 0.00 in 868 W/m2
14:20 81.3 °F 65.1 °F 30.19 in WSW 7 mph 17 mph 58% 0.00 in 836 W/m2
14:30 81.7 °F 65 °F 30.18 in WSW 9 mph 14 mph 57% 0.00 in 831 W/m2
14:40 81.9 °F 65.6 °F 30.18 in West 9 mph 16 mph 58% 0.00 in 821 W/m2
14:50 81.7 °F 65.5 °F 30.18 in WSW 8 mph 14 mph 58% 0.00 in 797 W/m2
15:00 81.5 °F 64.8 °F 30.18 in West 6 mph 15 mph 57% 0.00 in 766 W/m2
15:10 81.7 °F 65 °F 30.17 in WSW 7 mph 13 mph 57% 0.00 in 748 W/m2
15:20 82.2 °F 65.5 °F 30.17 in West 5 mph 12 mph 57% 0.00 in 715 W/m2
15:30 82.6 °F 64.8 °F 30.17 in West 8 mph 13 mph 55% 0.00 in 695 W/m2
15:40 82.4 °F 64.6 °F 30.17 in West 6 mph 13 mph 55% 0.00 in 668 W/m2
15:50 82.6 °F 64.8 °F 30.17 in WSW 6 mph 12 mph 55% 0.00 in 638 W/m2
16:00 82.6 °F 64.3 °F 30.17 in WSW 7 mph 14 mph 54% 0.00 in 606 W/m2
16:10 82.6 °F 64.3 °F 30.16 in WSW 8 mph 13 mph 54% 0.00 in 580 W/m2
16:20 82.4 °F 64.1 °F 30.16 in WSW 6 mph 14 mph 54% 0.00 in 553 W/m2
16:30 82.6 °F 64.3 °F 30.16 in WSW 7 mph 13 mph 54% 0.00 in 524 W/m2
16:40 82.8 °F 64.4 °F 30.16 in WSW 7 mph 12 mph 54% 0.00 in 494 W/m2
16:50 82.6 °F 63.7 °F 30.16 in WSW 6 mph 14 mph 53% 0.00 in 460 W/m2
17:00 82.8 °F 64 °F 30.16 in WSW 7 mph 15 mph 53% 0.00 in 424 W/m2
17:10 82.7 °F 63.3 °F 30.15 in WSW 9 mph 14 mph 52% 0.00 in 394 W/m2
17:20 82.4 °F 63 °F 30.15 in West 9 mph 14 mph 52% 0.00 in 363 W/m2
17:30 82.4 °F 62.5 °F 30.15 in West 10 mph 15 mph 51% 0.00 in 326 W/m2
17:40 81.9 °F 62.5 °F 30.15 in West 9 mph 17 mph 52% 0.00 in 293 W/m2
17:50 81.5 °F 62.2 °F 30.15 in West 9 mph 14 mph 52% 0.00 in 266 W/m2
18:00 81 °F 61.8 °F 30.15 in West 8 mph 16 mph 52% 0.00 in 234 W/m2
18:10 80.8 °F 62.1 °F 30.15 in West 8 mph 13 mph 53% 0.00 in 200 W/m2
18:20 80.4 °F 61.7 °F 30.15 in West 8 mph 14 mph 53% 0.00 in 167 W/m2
18:30 80 °F 61.8 °F 30.16 in WSW 6 mph 13 mph 54% 0.00 in 139 W/m2
18:40 79.5 °F 61.4 °F 30.16 in West 6 mph 12 mph 54% 0.00 in 115 W/m2
18:50 78.9 °F 61.3 °F 30.16 in WSW 7 mph 12 mph 55% 0.00 in 97 W/m2
19:00 77.9 °F 60.4 °F 30.17 in West 6 mph 13 mph 55% 0.00 in 72 W/m2
19:10 77.4 °F 60.4 °F 30.17 in West 6 mph 11 mph 56% 0.00 in 51 W/m2
19:20 76.8 °F 60.4 °F 30.17 in West 5 mph 11 mph 57% 0.00 in 36 W/m2
19:30 76.3 °F 59.9 °F 30.17 in West 5 mph 8 mph 57% 0.00 in 24 W/m2
19:40 75.6 °F 59.7 °F 30.17 in West 3 mph 8 mph 58% 0.00 in 14 W/m2
19:50 74.9 °F 59.6 °F 30.17 in WSW 3 mph 6 mph 59% 0.00 in 8 W/m2
20:00 74.1 °F 58.9 °F 30.18 in WSW 3 mph 5 mph 59% 0.00 in 3 W/m2
20:10 73.5 °F 58.7 °F 30.18 in WSW 1 mph 5 mph 60% 0.00 in 0 W/m2
20:20 72.9 °F 59.2 °F 30.18 in WNW 1 mph 4 mph 62% 0.00 in 0 W/m2
20:30 72.3 °F 58.6 °F 30.19 in West 1 mph 5 mph 62% 0.00 in 0 W/m2
20:40 71.8 °F 58.5 °F 30.19 in NW 1 mph 5 mph 63% 0.00 in 0 W/m2
20:50 71.1 °F 58.3 °F 30.19 in SW 1 mph 2 mph 64% 0.00 in 0 W/m2
21:00 70.3 °F 58.9 °F 30.20 in SSE 2 mph 4 mph 67% 0.00 in 0 W/m2
21:10 69.6 °F 58.6 °F 30.20 in South 1 mph 3 mph 68% 0.00 in 0 W/m2
21:20 69 °F 58 °F 30.20 in SW 1 mph 2 mph 68% 0.00 in 0 W/m2
21:30 68.3 °F 57.7 °F 30.21 in SW 1 mph 2 mph 69% 0.00 in 0 W/m2
21:40 67.6 °F 57.5 °F 30.21 in WNW 1 mph 3 mph 70% 0.00 in 0 W/m2
21:50 67.1 °F 57.8 °F 30.21 in South 1 mph 5 mph 72% 0.00 in 0 W/m2
22:00 66.5 °F 57.5 °F 30.21 in NNW 1 mph 3 mph 73% 0.00 in 0 W/m2
22:10 65.9 °F 57 °F 30.21 in SSE 1 mph 3 mph 73% 0.00 in 0 W/m2
22:20 65.4 °F 56.9 °F 30.21 in Calm   3 mph 74% 0.00 in 0 W/m2
22:30 65 °F 56.5 °F 30.22 in South 2 mph 5 mph 74% 0.00 in 0 W/m2
22:40 64.3 °F 56.2 °F 30.22 in WSW 2 mph 4 mph 75% 0.00 in 0 W/m2
22:50 64 °F 56 °F 30.22 in WSW 1 mph 5 mph 75% 0.00 in 0 W/m2
23:00 63.9 °F 55.8 °F 30.22 in NW 2 mph 3 mph 75% 0.00 in 0 W/m2
23:10 63.3 °F 56 °F 30.22 in Calm   3 mph 77% 0.00 in 0 W/m2
23:20 63 °F 55.6 °F 30.22 in Calm   3 mph 77% 0.00 in 0 W/m2
23:30 62.5 °F 55.5 °F 30.22 in Calm   3 mph 78% 0.00 in 0 W/m2
23:40 62.1 °F 55.1 °F 30.22 in NW 1 mph 3 mph 78% 0.00 in 0 W/m2
23:50 61.5 °F 54.6 °F 30.22 in WNW 2 mph 3 mph 78% 0.00 in 0 W/m2
Knjazevac, Serbia
Compliments of Weather Underground - 2 mb